Time;durP1;ratioP1;P1;durP2;ratioP2;P2;SDS_P1;SDS_P2;PMS_P1;PMS_P2;Temp;Humidity;BMP_temperature;BMP_pressure;BME280_temperature;BME280_humidity;BME280_pressure;Samples;Min_cycle;Max_cycle;Signal;HPM_P1;HPM_P2
2020/12/14 00:02:17;;;;;;;9.67;1.97;;;7.70;83.70;;;;;;5069519;28;20025;-82
2020/12/14 00:04:43;;;;;;;8.80;2.00;;;7.70;83.80;;;;;;5066792;28;20043;-81
2020/12/14 00:07:09;;;;;;;6.47;1.57;;;7.70;83.50;;;;;;5052668;28;20041;-82
2020/12/14 00:09:35;;;;;;;7.70;1.83;;;7.70;83.50;;;;;;5054500;28;20033;-82
2020/12/14 00:12:02;;;;;;;7.97;1.43;;;7.70;83.20;;;;;;5052611;28;20086;-80
2020/12/14 00:14:28;;;;;;;6.27;2.07;;;7.80;83.20;;;;;;5052700;28;20017;-81
2020/12/14 00:16:54;;;;;;;7.40;1.93;;;7.80;83.00;;;;;;5063084;28;20017;-82
2020/12/14 00:19:20;;;;;;;7.93;1.67;;;7.80;83.00;;;;;;5055888;28;20024;-82
2020/12/14 00:21:45;;;;;;;5.97;2.00;;;7.80;82.90;;;;;;5068425;28;20480;-81
2020/12/14 00:24:11;;;;;;;5.97;1.83;;;7.80;82.70;;;;;;5059813;28;20035;-82
2020/12/14 00:26:37;;;;;;;5.93;1.53;;;7.80;82.60;;;;;;5054549;28;20082;-82
2020/12/14 00:29:03;;;;;;;6.43;2.00;;;7.90;82.70;;;;;;5041153;28;20071;-81
2020/12/14 00:31:28;;;;;;;6.80;1.43;;;7.90;82.40;;;;;;5058318;28;20100;-82
2020/12/14 00:33:54;;;;;;;8.03;1.60;;;7.80;82.30;;;;;;5065417;28;20104;-83
2020/12/14 00:36:20;;;;;;;10.70;1.73;;;7.90;82.40;;;;;;5055660;28;20063;-80
2020/12/14 00:38:46;;;;;;;6.93;1.70;;;7.90;82.40;;;;;;5060986;28;20045;-81
2020/12/14 00:41:18;;;;;;;5.20;1.30;;;7.90;82.40;;;;;;5054609;28;20484;-83
2020/12/14 00:43:44;;;;;;;8.37;1.57;;;7.90;82.40;;;;;;5059937;28;20108;-81
2020/12/14 00:46:14;;;;;;;4.63;1.50;;;7.90;82.20;;;;;;5052050;28;20036;-81
2020/12/14 00:48:40;;;;;;;6.07;1.70;;;7.90;82.20;;;;;;5069195;28;20387;-82
2020/12/14 00:51:06;;;;;;;10.60;1.57;;;8.00;82.10;;;;;;5055293;28;20021;-82
2020/12/14 00:53:35;;;;;;;9.93;2.13;;;7.90;82.00;;;;;;5052000;28;20384;-81
2020/12/14 00:56:04;;;;;;;8.23;2.00;;;7.90;82.00;;;;;;5037305;28;20549;-81
2020/12/14 00:58:30;;;;;;;9.60;1.70;;;8.00;82.00;;;;;;5069101;28;20068;-81
2020/12/14 01:00:56;;;;;;;5.93;1.40;;;7.90;82.00;;;;;;5062335;28;20051;-85
2020/12/14 01:03:23;;;;;;;12.77;1.97;;;8.00;82.00;;;;;;5058313;28;20487;-81
2020/12/14 01:05:49;;;;;;;10.23;1.53;;;8.00;81.70;;;;;;5058626;28;20025;-81
2020/12/14 01:08:15;;;;;;;11.87;1.80;;;8.00;81.90;;;;;;5055921;28;20033;-81
2020/12/14 01:10:41;;;;;;;8.70;1.67;;;8.10;82.00;;;;;;5055143;28;20039;-81
2020/12/14 01:13:06;;;;;;;11.83;1.80;;;8.00;81.80;;;;;;5071903;28;20029;-82
2020/12/14 01:15:32;;;;;;;8.47;1.60;;;8.00;82.40;;;;;;5055137;28;20035;-82
2020/12/14 01:17:57;;;;;;;8.27;1.70;;;8.00;81.90;;;;;;5052095;28;20056;-83
2020/12/14 01:20:23;;;;;;;5.87;1.30;;;8.00;81.90;;;;;;5035524;28;20040;-81
2020/12/14 01:22:49;;;;;;;7.20;1.27;;;8.00;82.00;;;;;;5069534;28;20024;-81
2020/12/14 01:25:14;;;;;;;6.93;1.43;;;8.10;82.30;;;;;;5046594;28;20017;-81
2020/12/14 01:27:40;;;;;;;5.40;1.30;;;8.10;82.60;;;;;;5051672;28;20044;-82
2020/12/14 01:30:05;;;;;;;7.40;1.50;;;8.10;82.50;;;;;;5044462;28;20029;-81
2020/12/14 01:32:31;;;;;;;5.80;1.30;;;8.10;82.50;;;;;;5068021;28;20036;-81
2020/12/14 01:34:56;;;;;;;7.20;1.60;;;8.00;82.50;;;;;;5068255;28;20064;-80
2020/12/14 01:37:22;;;;;;;8.90;1.70;;;8.10;82.40;;;;;;5061414;28;20076;-81
2020/12/14 01:39:48;;;;;;;9.57;1.67;;;8.10;82.50;;;;;;5067309;28;20050;-81
2020/12/14 01:42:13;;;;;;;6.63;1.47;;;8.00;82.30;;;;;;5038424;28;20029;-82
2020/12/14 01:44:39;;;;;;;8.17;1.40;;;8.10;82.40;;;;;;5051521;28;20392;-81
2020/12/14 01:47:05;;;;;;;5.67;1.43;;;8.10;82.30;;;;;;5043412;28;20036;-81
2020/12/14 01:49:31;;;;;;;7.97;1.20;;;8.20;82.20;;;;;;5068333;28;20060;-81
2020/12/14 01:51:56;;;;;;;5.73;1.23;;;8.10;82.10;;;;;;5054082;28;20451;-81
2020/12/14 01:54:34;;;;;;;5.50;1.17;;;8.20;82.20;;;;;;5066864;28;20051;-81
2020/12/14 01:57:01;;;;;;;4.20;1.00;;;8.20;82.20;;;;;;5067080;28;20023;-81
2020/12/14 01:59:27;;;;;;;5.33;1.40;;;8.20;82.10;;;;;;5069330;28;20388;-81
2020/12/14 02:01:53;;;;;;;7.70;1.30;;;8.20;82.30;;;;;;5056633;28;20032;-82
2020/12/14 02:04:18;;;;;;;5.27;1.50;;;8.20;82.30;;;;;;5054711;28;20064;-85
2020/12/14 02:06:44;;;;;;;5.30;1.40;;;8.20;82.30;;;;;;5070459;28;20025;-80
2020/12/14 02:09:10;;;;;;;10.03;1.67;;;8.20;82.30;;;;;;5055166;28;20042;-82
2020/12/14 02:11:35;;;;;;;9.13;1.57;;;8.20;82.30;;;;;;5055057;28;20127;-81
2020/12/14 02:14:01;;;;;;;5.27;1.67;;;8.20;82.40;;;;;;5042336;28;20024;-82
2020/12/14 02:16:27;;;;;;;8.80;1.53;;;8.20;82.30;;;;;;5047624;28;20025;-81
2020/12/14 02:18:52;;;;;;;6.20;1.43;;;8.30;82.40;;;;;;5074793;28;20092;-82
2020/12/14 02:21:18;;;;;;;5.13;1.10;;;8.30;83.20;;;;;;5038680;28;20030;-82
2020/12/14 02:23:44;;;;;;;6.03;1.40;;;8.30;82.60;;;;;;5056082;28;20032;-84
2020/12/14 02:26:10;;;;;;;9.20;1.73;;;8.30;82.60;;;;;;5048334;28;20438;-81
2020/12/14 02:28:36;;;;;;;5.67;1.47;;;8.30;82.60;;;;;;5051916;28;20029;-82
2020/12/14 02:31:01;;;;;;;8.27;1.80;;;8.20;82.60;;;;;;5056962;28;20037;-82
2020/12/14 02:33:27;;;;;;;5.80;1.50;;;8.30;82.80;;;;;;5046807;28;20074;-81
2020/12/14 02:35:53;;;;;;;10.17;1.73;;;8.30;82.80;;;;;;5038036;28;20036;-81
2020/12/14 02:38:18;;;;;;;6.30;1.37;;;8.30;82.80;;;;;;5063409;28;20047;-84
2020/12/14 02:40:44;;;;;;;7.00;1.40;;;8.30;82.80;;;;;;5056689;28;20059;-82
2020/12/14 02:43:09;;;;;;;6.97;1.10;;;8.30;82.90;;;;;;5060607;28;20113;-81
2020/12/14 02:45:37;;;;;;;4.80;1.60;;;8.40;83.10;;;;;;5072229;28;20033;-82
2020/12/14 02:48:03;;;;;;;7.57;1.57;;;8.30;83.20;;;;;;5053832;28;20029;-82
2020/12/14 02:50:29;;;;;;;10.20;1.73;;;8.40;83.30;;;;;;5058694;28;20035;-82
2020/12/14 02:52:55;;;;;;;7.77;1.20;;;8.30;83.50;;;;;;5049515;28;20024;-83
2020/12/14 02:55:21;;;;;;;8.40;2.23;;;8.40;83.80;;;;;;5063249;28;20393;-83
2020/12/14 02:57:46;;;;;;;6.70;1.87;;;8.40;83.90;;;;;;5073169;28;20059;-81
2020/12/14 03:00:12;;;;;;;5.67;1.20;;;8.40;84.30;;;;;;5048317;28;20103;-84
2020/12/14 03:02:37;;;;;;;5.90;1.20;;;8.30;85.00;;;;;;5049750;28;20036;-81
2020/12/14 03:05:03;;;;;;;4.73;1.40;;;8.40;84.60;;;;;;5073489;28;20037;-81
2020/12/14 03:07:29;;;;;;;6.80;1.20;;;8.40;85.00;;;;;;5064731;28;20029;-81
2020/12/14 03:09:54;;;;;;;6.47;1.10;;;8.30;84.90;;;;;;5055397;28;20067;-83
2020/12/14 03:12:20;;;;;;;6.53;1.27;;;8.30;85.20;;;;;;5067710;28;20489;-80
2020/12/14 03:14:46;;;;;;;6.83;1.20;;;8.30;85.30;;;;;;5056883;28;20106;-81
2020/12/14 03:17:11;;;;;;;8.97;1.50;;;8.30;85.30;;;;;;5063676;28;20032;-82
2020/12/14 03:19:37;;;;;;;4.47;1.30;;;8.30;85.50;;;;;;5045547;28;20036;-82
2020/12/14 03:22:02;;;;;;;6.83;1.40;;;8.30;85.50;;;;;;5054371;28;20033;-82
2020/12/14 03:24:28;;;;;;;7.63;1.37;;;8.30;85.70;;;;;;5055854;28;20123;-76
2020/12/14 03:26:53;;;;;;;7.07;1.20;;;8.30;86.00;;;;;;5057097;28;20032;-78
2020/12/14 03:29:19;;;;;;;5.63;1.50;;;8.30;86.40;;;;;;5034819;28;20029;-77
2020/12/14 03:31:45;;;;;;;5.57;1.47;;;8.30;87.10;;;;;;5042035;28;20496;-78
2020/12/14 03:34:11;;;;;;;4.70;1.40;;;8.40;87.80;;;;;;5053665;28;20036;-78
2020/12/14 03:36:36;;;;;;;4.13;1.53;;;8.30;88.50;;;;;;5052229;28;20033;-77
2020/12/14 03:39:03;;;;;;;8.77;2.10;;;8.20;88.60;;;;;;5054675;28;20538;-77
2020/12/14 03:41:28;;;;;;;7.53;1.63;;;8.20;89.10;;;;;;5062183;28;20027;-81
2020/12/14 03:43:54;;;;;;;6.10;1.47;;;8.20;89.60;;;;;;5064560;28;20033;-82
2020/12/14 03:46:21;;;;;;;5.93;1.90;;;8.20;90.20;;;;;;5066114;28;20365;-81
2020/12/14 03:48:48;;;;;;;5.13;1.60;;;8.10;90.10;;;;;;5062551;28;20065;-82
2020/12/14 03:51:14;;;;;;;6.13;1.80;;;8.10;90.50;;;;;;5053095;28;20075;-82
2020/12/14 03:53:40;;;;;;;9.27;1.97;;;8.00;90.70;;;;;;5051143;28;20040;-81
2020/12/14 03:56:06;;;;;;;7.20;2.00;;;8.00;90.80;;;;;;5031481;28;20033;-81
2020/12/14 03:58:32;;;;;;;7.70;1.90;;;8.00;90.70;;;;;;5066159;28;20137;-82
2020/12/14 04:00:58;;;;;;;8.07;1.90;;;8.10;91.10;;;;;;5057736;28;20108;-81
2020/12/14 04:03:25;;;;;;;6.30;2.00;;;7.90;91.20;;;;;;5061593;28;20029;-82
2020/12/14 04:05:50;;;;;;;7.17;2.07;;;7.90;91.20;;;;;;5062365;28;20028;-81
2020/12/14 04:08:16;;;;;;;7.00;1.83;;;8.00;91.20;;;;;;5055265;28;20033;-81
2020/12/14 04:10:43;;;;;;;8.07;1.83;;;7.90;91.20;;;;;;5072655;28;20020;-81
2020/12/14 04:13:08;;;;;;;7.50;1.87;;;7.90;91.20;;;;;;5062679;28;20017;-83
2020/12/14 04:15:34;;;;;;;7.07;2.27;;;8.00;91.30;;;;;;5061758;28;20028;-82
2020/12/14 04:18:00;;;;;;;10.23;2.20;;;8.00;91.60;;;;;;5054787;28;20036;-81
2020/12/14 04:20:26;;;;;;;5.43;1.93;;;8.00;91.70;;;;;;5052838;28;20469;-76
2020/12/14 04:22:51;;;;;;;8.83;2.77;;;8.00;91.80;;;;;;5070728;28;20031;-76
2020/12/14 04:25:17;;;;;;;7.90;2.40;;;8.00;91.70;;;;;;5072440;28;20081;-77
2020/12/14 04:27:44;;;;;;;7.20;1.93;;;8.00;91.80;;;;;;5060168;28;20017;-76
2020/12/14 04:30:10;;;;;;;6.70;2.20;;;7.90;92.00;;;;;;5072553;28;20029;-75
2020/12/14 04:32:36;;;;;;;7.33;2.33;;;7.90;92.00;;;;;;5072341;28;20020;-76
2020/12/14 04:35:02;;;;;;;7.33;2.17;;;8.00;92.20;;;;;;5060615;28;20392;-76
2020/12/14 04:37:27;;;;;;;6.10;2.13;;;8.10;92.20;;;;;;5053609;28;20070;-76
2020/12/14 04:39:53;;;;;;;7.17;2.43;;;8.00;92.40;;;;;;5052219;28;20025;-76
2020/12/14 04:42:19;;;;;;;5.87;2.20;;;8.00;92.50;;;;;;5053407;28;20021;-76
2020/12/14 04:44:45;;;;;;;5.23;1.90;;;8.10;92.50;;;;;;5052151;28;20079;-76
2020/12/14 04:47:12;;;;;;;8.20;2.27;;;8.10;92.60;;;;;;5061482;28;20024;-75
2020/12/14 04:49:41;;;;;;;8.93;2.67;;;8.10;92.70;;;;;;5056104;28;20027;-75
2020/12/14 04:52:07;;;;;;;6.50;2.03;;;8.00;93.00;;;;;;5064329;28;20025;-76
2020/12/14 04:54:34;;;;;;;4.60;1.60;;;8.00;93.10;;;;;;5035443;28;20146;-75
2020/12/14 04:57:08;;;;;;;6.40;1.90;;;8.00;93.20;;;;;;5053040;28;20021;-76
2020/12/14 04:59:35;;;;;;;7.50;2.10;;;8.00;93.30;;;;;;5064006;28;20115;-76
2020/12/14 05:02:09;;;;;;;6.03;1.67;;;8.00;93.30;;;;;;5057691;28;20104;-76
2020/12/14 05:04:39;;;;;;;4.70;1.75;;;8.00;93.30;;;;;;5062610;28;20024;-75
2020/12/14 05:07:05;;;;;;;5.93;2.03;;;8.00;93.30;;;;;;5058016;28;20754;-76
2020/12/14 05:09:31;;;;;;;5.60;2.07;;;8.10;93.30;;;;;;5060224;28;20027;-75
2020/12/14 05:11:58;;;;;;;8.07;1.80;;;8.00;93.30;;;;;;5068436;28;20111;-76
2020/12/14 05:14:29;;;;;;;5.83;1.67;;;8.10;93.30;;;;;;5066089;28;20032;-75
2020/12/14 05:16:54;;;;;;;7.67;2.10;;;8.10;93.40;;;;;;5055392;28;20025;-75
2020/12/14 05:19:23;;;;;;;4.97;1.67;;;8.10;93.40;;;;;;5034088;28;20345;-76
2020/12/14 05:21:59;;;;;;;4.20;1.80;;;8.10;93.40;;;;;;5068383;28;20048;-76
2020/12/14 05:24:32;;;;;;;8.27;1.80;;;8.20;93.40;;;;;;5068814;28;20549;-77
2020/12/14 05:27:00;;;;;;;6.60;1.97;;;8.10;93.40;;;;;;5051519;28;20037;-76
2020/12/14 05:29:27;;;;;;;6.77;2.10;;;8.30;93.40;;;;;;5062921;28;20101;-77
2020/12/14 05:32:12;;;;;;;5.90;2.37;;;8.20;93.40;;;;;;5060410;28;20468;-76
2020/12/14 05:34:40;;;;;;;5.07;2.07;;;8.30;93.40;;;;;;5074162;28;20028;-76
2020/12/14 05:37:11;;;;;;;5.17;2.00;;;8.20;93.40;;;;;;5070636;28;20468;-76
2020/12/14 05:39:39;;;;;;;5.73;2.07;;;8.20;93.40;;;;;;5073198;28;20020;-77
2020/12/14 05:42:12;;;;;;;8.00;2.20;;;8.20;93.40;;;;;;5064316;28;20016;-76
2020/12/14 05:44:38;;;;;;;6.33;2.20;;;8.20;93.40;;;;;;5075513;28;20024;-75
2020/12/14 05:47:20;;;;;;;5.73;2.00;;;8.30;93.40;;;;;;5062832;28;20021;-76
2020/12/14 05:49:46;;;;;;;4.77;1.60;;;8.30;93.40;;;;;;5056714;28;20111;-76
2020/12/14 05:52:18;;;;;;;5.57;2.03;;;8.30;93.40;;;;;;5055385;28;20502;-76
2020/12/14 05:54:50;;;;;;;4.50;1.73;;;8.20;93.40;;;;;;5075041;28;20384;-75
2020/12/14 05:57:35;;;;;;;4.10;1.50;;;8.30;93.50;;;;;;5061924;28;20047;-76
2020/12/14 06:00:03;;;;;;;;;;;8.30;93.50;;;;;;5057913;28;20025;-76
2020/12/14 06:02:28;;;;;;;5.77;1.73;;;8.40;93.60;;;;;;5068564;28;19909;-75
2020/12/14 06:04:58;;;;;;;6.17;2.20;;;8.30;93.50;;;;;;5055644;28;20452;-76
2020/12/14 06:07:26;;;;;;;5.17;2.03;;;8.30;93.60;;;;;;5074122;28;20387;-81
2020/12/14 06:10:08;;;;;;;7.67;1.90;;;8.40;93.60;;;;;;5064028;28;20036;-81
2020/12/14 06:12:36;;;;;;;7.27;2.40;;;8.30;93.60;;;;;;5058796;28;20029;-81
2020/12/14 06:15:14;;;;;;;7.33;2.27;;;8.40;93.60;;;;;;5054766;28;20033;-80
2020/12/14 06:17:40;;;;;;;4.93;1.80;;;8.40;93.60;;;;;;5054882;28;20117;-79
2020/12/14 06:20:13;;;;;;;5.90;2.53;;;8.40;93.60;;;;;;5067369;28;20040;-80
2020/12/14 06:22:44;;;;;;;6.32;2.85;;;8.40;93.70;;;;;;5062944;28;20032;-81
2020/12/14 06:25:10;;;;;;;7.80;2.60;;;8.40;93.70;;;;;;5072809;28;20025;-82
2020/12/14 06:27:36;;;;;;;7.43;2.30;;;8.40;93.70;;;;;;5057503;28;20396;-80
2020/12/14 06:30:29;;;;;;;4.50;2.00;;;8.40;93.70;;;;;;5056118;28;20025;-80
2020/12/14 06:33:00;;;;;;;5.63;2.20;;;8.50;93.70;;;;;;5067420;28;20028;-80
2020/12/14 06:35:49;;;;;;;5.17;2.63;;;8.50;93.70;;;;;;5058866;28;20029;-81
2020/12/14 06:38:40;;;;;;;6.83;2.13;;;8.50;93.70;;;;;;5060418;28;20073;-80
2020/12/14 06:41:15;;;;;;;5.10;2.67;;;8.50;93.80;;;;;;5041032;28;20017;-79
2020/12/14 06:43:42;;;;;;;4.47;2.10;;;8.50;93.80;;;;;;5075827;28;20025;-80
2020/12/14 06:46:08;;;;;;;5.23;2.23;;;8.50;93.70;;;;;;5054903;28;20028;-80
2020/12/14 06:48:37;;;;;;;5.73;2.03;;;8.50;93.80;;;;;;5060971;28;20034;-80
2020/12/14 06:51:04;;;;;;;5.83;2.27;;;8.50;93.90;;;;;;5057867;28;20095;-81
2020/12/14 06:53:38;;;;;;;4.13;2.00;;;8.50;93.90;;;;;;5070660;28;20063;-80
2020/12/14 06:56:04;;;;;;;5.05;2.47;;;8.60;93.90;;;;;;5065465;28;20064;-79
2020/12/14 06:58:30;;;;;;;5.77;2.47;;;8.50;94.00;;;;;;5055346;28;20049;-80
2020/12/14 07:00:57;;;;;;;5.53;2.43;;;8.50;94.10;;;;;;5055511;28;20079;-81
2020/12/14 07:03:39;;;;;;;3.80;2.10;;;8.50;94.10;;;;;;5054220;28;20036;-80
2020/12/14 07:06:06;;;;;;;4.93;2.73;;;8.50;94.00;;;;;;5038549;28;20112;-75
2020/12/14 07:08:39;;;;;;;5.27;2.90;;;8.50;94.10;;;;;;5041892;28;20067;-75
2020/12/14 07:11:19;;;;;;;5.27;3.03;;;8.50;94.20;;;;;;5064957;28;20029;-76
2020/12/14 07:13:46;;;;;;;6.43;3.10;;;8.50;94.30;;;;;;5054540;28;20040;-75
2020/12/14 07:16:13;;;;;;;7.27;3.63;;;8.50;94.40;;;;;;5060406;28;20020;-76
2020/12/14 07:18:40;;;;;;;10.47;3.90;;;8.50;94.40;;;;;;5062836;28;20111;-75
2020/12/14 07:21:15;;;;;;;6.10;3.40;;;8.50;94.50;;;;;;5052900;28;20025;-75
2020/12/14 07:23:45;;;;;;;8.63;3.67;;;8.50;94.40;;;;;;5059989;28;20029;-75
2020/12/14 07:26:15;;;;;;;8.47;3.67;;;8.50;94.50;;;;;;5062864;28;20106;-75
2020/12/14 07:28:49;;;;;;;8.43;3.10;;;8.50;94.50;;;;;;5058901;28;20032;-75
2020/12/14 07:31:18;;;;;;;7.22;3.65;;;8.50;94.50;;;;;;5070143;28;20195;-75
2020/12/14 07:33:55;;;;;;;9.33;4.20;;;8.50;94.50;;;;;;5063515;28;20484;-83
2020/12/14 07:36:22;;;;;;;8.50;3.63;;;8.40;94.50;;;;;;5061621;28;20488;-81
2020/12/14 07:38:56;;;;;;;6.07;3.50;;;8.50;94.50;;;;;;5055673;28;20484;-81
2020/12/14 07:41:23;;;;;;;6.15;3.28;;;8.50;94.40;;;;;;5057869;28;20029;-82
2020/12/14 07:43:48;;;;;;;6.63;3.60;;;8.60;94.40;;;;;;5058197;28;20029;-81
2020/12/14 07:46:19;;;;;;;7.03;3.60;;;8.60;94.40;;;;;;5059334;28;20186;-81
2020/12/14 07:49:15;;;;;;;9.90;4.03;;;8.60;94.40;;;;;;5073819;28;20029;-81
2020/12/14 07:51:44;;;;;;;6.73;3.50;;;8.60;94.30;;;;;;5060018;28;20050;-81
2020/12/14 07:54:18;;;;;;;8.03;3.67;;;8.60;94.30;;;;;;5065109;28;20020;-81
2020/12/14 07:57:06;;;;;;;6.73;4.10;;;8.60;94.40;;;;;;5066705;28;20028;-81
2020/12/14 07:59:31;;;;;;;8.40;4.00;;;8.70;94.50;;;;;;5054177;28;20025;-79
2020/12/14 08:01:57;;;;;;;7.30;3.70;;;8.70;94.50;;;;;;5058464;28;20025;-81
2020/12/14 08:04:27;;;;;;;7.17;4.77;;;8.70;94.50;;;;;;5055582;28;20044;-79
2020/12/14 08:06:54;;;;;;;7.37;4.27;;;8.80;94.60;;;;;;5066486;28;20021;-81
2020/12/14 08:09:23;;;;;;;5.67;4.00;;;8.70;94.60;;;;;;5057056;28;20074;-82
2020/12/14 08:11:51;;;;;;;7.77;4.60;;;8.80;94.70;;;;;;5075972;28;20094;-82
2020/12/14 08:14:21;;;;;;;8.10;4.63;;;8.80;94.60;;;;;;5039849;28;20032;-82
2020/12/14 08:16:48;;;;;;;8.40;4.43;;;8.90;94.70;;;;;;5074289;28;20435;-81
2020/12/14 08:19:18;;;;;;;7.57;4.80;;;8.80;94.70;;;;;;5073115;28;20044;-80
2020/12/14 08:22:06;;;;;;;9.93;5.10;;;8.90;94.80;;;;;;5072949;28;20024;-82
2020/12/14 08:24:32;;;;;;;7.13;5.03;;;8.90;94.90;;;;;;5072162;28;20090;-82
2020/12/14 08:27:04;;;;;;;7.70;5.10;;;8.90;94.90;;;;;;5055899;28;20025;-82
2020/12/14 08:29:31;;;;;;;9.50;5.53;;;9.00;95.00;;;;;;5074080;28;20032;-82
2020/12/14 08:31:58;;;;;;;10.80;5.30;;;8.90;95.00;;;;;;5039661;28;20384;-82
2020/12/14 08:34:28;;;;;;;10.03;5.90;;;9.00;95.10;;;;;;5056212;28;20073;-82
2020/12/14 08:36:54;;;;;;;8.03;5.20;;;9.00;95.10;;;;;;5056123;28;20120;-81
2020/12/14 08:39:19;;;;;;;9.07;4.93;;;9.00;95.10;;;;;;5051259;28;20045;-80
2020/12/14 08:41:45;;;;;;;7.27;4.80;;;9.00;95.20;;;;;;5052403;28;20068;-82
2020/12/14 08:44:21;;;;;;;8.97;4.90;;;9.00;95.20;;;;;;5052160;28;20029;-75
2020/12/14 08:46:47;;;;;;;8.00;5.03;;;9.10;95.20;;;;;;5053440;28;20082;-76
2020/12/14 08:49:18;;;;;;;8.07;5.00;;;9.10;95.30;;;;;;5052160;28;20120;-77
2020/12/14 08:51:48;;;;;;;7.67;5.40;;;9.10;95.30;;;;;;5058812;28;20025;-76
2020/12/14 08:54:18;;;;;;;7.93;4.97;;;9.10;95.30;;;;;;5073128;28;20020;-75
2020/12/14 08:56:45;;;;;;;7.83;4.87;;;9.20;95.30;;;;;;5073517;28;20021;-76
2020/12/14 08:59:18;;;;;;;8.30;4.60;;;9.20;95.40;;;;;;5073170;28;20523;-76
2020/12/14 09:02:08;;;;;;;8.03;5.40;;;9.20;95.40;;;;;;5072295;28;20036;-77
2020/12/14 09:04:36;;;;;;;7.80;5.30;;;9.40;95.60;;;;;;5072925;28;20388;-76
2020/12/14 09:07:03;;;;;;;7.90;5.13;;;9.30;95.60;;;;;;5071781;28;20043;-76
2020/12/14 09:09:34;;;;;;;7.63;4.63;;;9.40;95.60;;;;;;5071828;28;20063;-76
2020/12/14 09:12:01;;;;;;;7.33;5.23;;;9.40;95.70;;;;;;5071881;28;20032;-76
2020/12/14 09:14:32;;;;;;;7.57;5.07;;;9.40;95.80;;;;;;5072987;28;20483;-75
2020/12/14 09:17:00;;;;;;;7.77;5.00;;;9.40;96.00;;;;;;5055127;28;20024;-76
2020/12/14 09:19:31;;;;;;;5.90;4.33;;;9.60;95.80;;;;;;5071820;28;20025;-76
2020/12/14 09:21:57;;;;;;;6.60;4.87;;;9.50;95.80;;;;;;5071875;28;20024;-76
2020/12/14 09:24:34;;;;;;;6.83;5.07;;;9.50;95.80;;;;;;5073336;28;20039;-75
2020/12/14 09:27:07;;;;;;;7.83;4.60;;;9.60;95.80;;;;;;5073146;28;20032;-77
2020/12/14 09:29:33;;;;;;;7.13;4.83;;;9.70;95.90;;;;;;5073030;28;20029;-77
2020/12/14 09:32:00;;;;;;;8.17;4.53;;;9.70;95.90;;;;;;5073036;28;20032;-76
2020/12/14 09:34:26;;;;;;;6.30;3.50;;;9.80;95.90;;;;;;5072892;28;20052;-75
2020/12/14 09:36:54;;;;;;;6.20;3.93;;;9.80;95.80;;;;;;5072921;28;20025;-76
2020/12/14 09:39:22;;;;;;;6.27;3.93;;;9.90;96.10;;;;;;5073075;28;20391;-75
2020/12/14 09:41:48;;;;;;;5.90;3.53;;;9.90;95.80;;;;;;5073036;28;20104;-76
2020/12/14 09:44:13;;;;;;;5.40;3.23;;;9.90;95.70;;;;;;5065418;28;20033;-77
2020/12/14 09:46:39;;;;;;;6.57;3.73;;;10.10;95.70;;;;;;5069201;28;20036;-75
2020/12/14 09:49:05;;;;;;;5.10;3.33;;;10.10;95.70;;;;;;5071664;28;20491;-75
2020/12/14 09:51:33;;;;;;;4.37;2.80;;;10.00;95.60;;;;;;5055008;28;20028;-76
2020/12/14 09:53:59;;;;;;;5.83;3.10;;;10.10;95.60;;;;;;5073014;28;20032;-76
2020/12/14 09:56:24;;;;;;;5.73;2.80;;;10.20;95.60;;;;;;5071700;28;20499;-76
2020/12/14 09:58:50;;;;;;;5.10;2.87;;;10.20;95.50;;;;;;5071137;28;20515;-75
2020/12/14 10:01:16;;;;;;;3.83;2.37;;;10.20;95.50;;;;;;5072768;28;20039;-76
2020/12/14 10:03:42;;;;;;;4.80;2.27;;;10.30;95.40;;;;;;5071508;28;20024;-75
2020/12/14 10:06:15;;;;;;;4.77;2.30;;;10.30;95.30;;;;;;5071344;28;20040;-75
2020/12/14 10:08:41;;;;;;;6.47;2.73;;;10.40;95.30;;;;;;5071651;28;20028;-76
2020/12/14 10:11:08;;;;;;;4.47;2.10;;;10.40;95.20;;;;;;5071558;28;20028;-80
2020/12/14 10:13:35;;;;;;;6.33;2.37;;;10.60;95.20;;;;;;5071543;28;20028;-81
2020/12/14 10:16:01;;;;;;;4.47;1.93;;;10.60;95.10;;;;;;5071587;28;20021;-82
2020/12/14 10:18:27;;;;;;;4.47;2.07;;;10.50;94.90;;;;;;5055038;28;20025;-81
2020/12/14 10:20:52;;;;;;;5.13;1.90;;;10.50;95.00;;;;;;5055021;28;20099;-81
2020/12/14 10:23:18;;;;;;;4.27;2.17;;;10.70;94.80;;;;;;5055056;28;20064;-81
2020/12/14 10:25:44;;;;;;;4.20;1.87;;;10.60;94.70;;;;;;5021900;28;20039;-82
2020/12/14 10:28:09;;;;;;;4.17;2.13;;;10.60;94.60;;;;;;5056162;28;20033;-77
2020/12/14 10:30:36;;;;;;;3.83;1.80;;;10.70;94.60;;;;;;5064115;28;20033;-76
2020/12/14 10:33:02;;;;;;;3.90;2.07;;;10.80;94.60;;;;;;5064113;28;20033;-76
2020/12/14 10:35:28;;;;;;;3.33;1.93;;;10.70;94.50;;;;;;5061080;28;20136;-79
2020/12/14 10:37:55;;;;;;;3.43;1.70;;;10.90;94.40;;;;;;5055978;28;20020;-82
2020/12/14 10:40:24;;;;;;;3.60;2.00;;;11.00;94.40;;;;;;5068911;28;20021;-82
2020/12/14 10:42:50;;;;;;;2.93;1.80;;;11.00;94.30;;;;;;5052799;28;20483;-82
2020/12/14 10:45:15;;;;;;;3.80;1.63;;;11.10;94.20;;;;;;5061220;28;20036;-82
2020/12/14 10:47:41;;;;;;;4.20;1.80;;;11.10;93.90;;;;;;5073840;28;20028;-81
2020/12/14 10:50:07;;;;;;;3.07;1.67;;;11.10;93.80;;;;;;5057325;28;20024;-82
2020/12/14 10:52:34;;;;;;;6.07;2.00;;;11.10;94.00;;;;;;5075439;28;20044;-81
2020/12/14 10:55:00;;;;;;;4.10;2.10;;;11.20;93.60;;;;;;5074323;28;20466;-82
2020/12/14 10:57:25;;;;;;;3.20;1.90;;;11.10;93.50;;;;;;5057226;28;20119;-81
2020/12/14 10:59:51;;;;;;;4.70;2.37;;;11.20;93.50;;;;;;5040745;28;20134;-82
2020/12/14 11:02:16;;;;;;;2.90;1.40;;;11.20;93.50;;;;;;5074199;28;20056;-81
2020/12/14 11:04:42;;;;;;;4.37;2.13;;;11.20;93.50;;;;;;5074320;28;20056;-80
2020/12/14 11:07:08;;;;;;;5.80;1.70;;;11.20;93.30;;;;;;5075614;28;20107;-82
2020/12/14 11:09:35;;;;;;;4.63;1.73;;;11.40;93.30;;;;;;5074134;28;20036;-81
2020/12/14 11:12:05;;;;;;;3.40;2.17;;;11.20;93.20;;;;;;5054471;28;20121;-81
2020/12/14 11:14:32;;;;;;;3.93;2.20;;;11.30;93.20;;;;;;5066864;28;20029;-81
2020/12/14 11:16:58;;;;;;;5.73;2.33;;;11.30;93.20;;;;;;5074207;28;20066;-81
2020/12/14 11:19:23;;;;;;;3.50;1.93;;;11.30;93.00;;;;;;5063470;28;20033;-81
2020/12/14 11:21:53;;;;;;;4.13;1.93;;;11.30;92.90;;;;;;5071829;28;20036;-82
2020/12/14 11:24:19;;;;;;;4.27;2.07;;;11.20;92.80;;;;;;5057100;28;20031;-82
2020/12/14 11:26:45;;;;;;;5.43;2.07;;;11.30;92.80;;;;;;5057368;28;20036;-80
2020/12/14 11:29:12;;;;;;;4.07;2.30;;;11.30;92.70;;;;;;5072800;28;20037;-81
2020/12/14 11:31:37;;;;;;;3.43;1.93;;;11.30;92.70;;;;;;5057182;28;20029;-83
2020/12/14 11:34:03;;;;;;;4.83;2.20;;;11.30;92.60;;;;;;5042411;28;20033;-81
2020/12/14 11:36:31;;;;;;;3.83;2.30;;;11.30;92.60;;;;;;5033418;28;20037;-80
2020/12/14 11:38:57;;;;;;;4.93;2.17;;;11.30;92.60;;;;;;5036969;28;20408;-81
2020/12/14 11:41:23;;;;;;;4.03;2.07;;;11.30;92.60;;;;;;5072276;28;20029;-82
2020/12/14 11:43:49;;;;;;;4.43;2.50;;;11.40;92.60;;;;;;5056898;28;20051;-81
2020/12/14 11:46:15;;;;;;;3.20;1.73;;;11.40;92.60;;;;;;5074583;28;20476;-81
2020/12/14 11:48:41;;;;;;;4.50;2.50;;;11.30;92.60;;;;;;5036879;28;20025;-82
2020/12/14 11:51:06;;;;;;;4.57;2.57;;;11.40;92.60;;;;;;5073054;28;20021;-81
2020/12/14 11:53:32;;;;;;;5.43;2.70;;;11.30;92.50;;;;;;5056883;28;20059;-81
2020/12/14 11:55:57;;;;;;;4.90;2.20;;;11.30;92.50;;;;;;5056664;28;20148;-81
2020/12/14 11:58:23;;;;;;;5.03;2.40;;;11.30;92.40;;;;;;5072869;28;20051;-81
2020/12/14 12:00:48;;;;;;;6.63;2.73;;;11.30;92.40;;;;;;5049544;28;20094;-81
2020/12/14 12:03:14;;;;;;;3.83;2.33;;;11.40;92.40;;;;;;5055677;28;20503;-81
2020/12/14 12:05:40;;;;;;;6.20;2.67;;;11.30;92.30;;;;;;5056373;28;20074;-81
2020/12/14 12:08:05;;;;;;;4.97;2.43;;;11.40;92.30;;;;;;5073080;28;20032;-82
2020/12/14 12:10:32;;;;;;;5.37;2.37;;;11.30;92.30;;;;;;5072981;28;20108;-81
2020/12/14 12:12:58;;;;;;;4.07;2.17;;;11.30;92.20;;;;;;5074081;28;20024;-81
2020/12/14 12:15:23;;;;;;;4.70;2.50;;;11.40;92.20;;;;;;5072741;28;20085;-80
2020/12/14 12:17:49;;;;;;;3.57;2.10;;;11.40;92.00;;;;;;5073926;28;20036;-80
2020/12/14 12:20:14;;;;;;;3.80;2.30;;;11.40;92.00;;;;;;5072517;28;20099;-81
2020/12/14 12:22:40;;;;;;;5.97;2.33;;;11.40;92.00;;;;;;5056091;28;20025;-80
2020/12/14 12:25:06;;;;;;;3.73;2.00;;;11.40;91.90;;;;;;5064236;28;20024;-81
2020/12/14 12:27:31;;;;;;;4.33;2.30;;;11.40;91.80;;;;;;5065653;28;20530;-81
2020/12/14 12:29:57;;;;;;;3.73;2.03;;;11.50;91.80;;;;;;5070639;28;20017;-82
2020/12/14 12:32:23;;;;;;;4.63;2.10;;;11.40;91.80;;;;;;5066990;28;20143;-81
2020/12/14 12:34:48;;;;;;;5.63;2.55;;;11.50;91.80;;;;;;5073357;28;20079;-81
2020/12/14 12:37:14;;;;;;;2.88;1.80;;;11.50;91.70;;;;;;5073315;28;20012;-82
2020/12/14 12:39:40;;;;;;;5.53;1.57;;;11.60;91.80;;;;;;5055454;28;20025;-81
2020/12/14 12:42:05;;;;;;;3.83;1.40;;;11.90;92.50;;;;;;5072521;28;20108;-80
2020/12/14 12:44:31;;;;;;;4.55;0.90;;;12.60;93.70;;;;;;5052202;28;20098;-81
2020/12/14 12:46:57;;;;;;;3.45;0.90;;;13.50;94.20;;;;;;5035517;28;20485;-81
2020/12/14 12:49:23;;;;;;;2.95;0.73;;;14.50;93.70;;;;;;5070880;28;20028;-81
2020/12/14 12:51:52;;;;;;;1.98;0.70;;;15.20;90.80;;;;;;5065023;28;20021;-81
2020/12/14 12:54:18;;;;;;;3.42;0.70;;;15.50;87.40;;;;;;5052074;28;20025;-82
2020/12/14 12:56:44;;;;;;;2.97;0.70;;;15.50;83.20;;;;;;5056000;28;20052;-80
2020/12/14 12:59:10;;;;;;;3.25;0.77;;;15.40;81.00;;;;;;5061766;28;20080;-81